createdAt,value
2022-10-09T00:00:14.040Z,11.60
2022-10-09T00:01:14.025Z,11.61
2022-10-09T00:02:14.094Z,11.61
2022-10-09T00:03:14.002Z,11.62
2022-10-09T00:04:13.993Z,11.62
2022-10-09T00:05:14.044Z,11.64
2022-10-09T00:06:13.975Z,11.64
2022-10-09T00:07:13.963Z,11.64
2022-10-09T00:08:13.993Z,11.64
2022-10-09T00:09:13.943Z,11.62
2022-10-09T00:10:13.933Z,11.64
2022-10-09T00:11:13.925Z,11.64
2022-10-09T00:12:13.912Z,11.67
2022-10-09T00:13:13.905Z,11.64
2022-10-09T00:14:13.895Z,11.62
2022-10-09T00:15:13.875Z,11.64
2022-10-09T00:16:13.890Z,11.61
2022-10-09T00:17:13.846Z,11.62
2022-10-09T00:18:13.845Z,11.64
2022-10-09T00:19:13.827Z,11.60
2022-10-09T00:20:13.837Z,11.58
2022-10-09T00:21:13.808Z,11.57
2022-10-09T00:22:13.804Z,11.57
2022-10-09T00:23:13.788Z,11.55
2022-10-09T00:24:13.779Z,11.55
2022-10-09T00:25:13.766Z,11.55
2022-10-09T00:26:13.757Z,11.54
2022-10-09T00:27:13.738Z,11.52
2022-10-09T00:28:13.765Z,11.49
2022-10-09T00:29:13.729Z,11.46
2022-10-09T00:30:13.717Z,11.47
2022-10-09T00:31:13.784Z,11.49
2022-10-09T00:32:13.698Z,11.44
2022-10-09T00:33:14.498Z,11.43
2022-10-09T00:34:13.679Z,11.43
2022-10-09T00:35:13.653Z,11.43
2022-10-09T00:36:13.660Z,11.44
2022-10-09T00:37:13.648Z,11.46
2022-10-09T00:38:13.630Z,11.47
2022-10-09T00:39:13.611Z,11.47
2022-10-09T00:40:13.602Z,11.47
2022-10-09T00:41:13.592Z,11.49
2022-10-09T00:42:13.590Z,11.47
2022-10-09T00:43:13.564Z,11.49
2022-10-09T00:44:13.571Z,11.43
2022-10-09T00:45:13.544Z,11.44
2022-10-09T00:46:13.579Z,11.43
2022-10-09T00:47:13.534Z,11.43
2022-10-09T00:48:13.539Z,11.42
2022-10-09T00:49:13.505Z,11.37
2022-10-09T00:50:13.512Z,11.40
2022-10-09T00:51:13.495Z,11.39
2022-10-09T00:52:13.556Z,11.40
2022-10-09T00:53:13.467Z,11.39
2022-10-09T00:54:13.457Z,11.37
2022-10-09T00:55:13.437Z,11.35
2022-10-09T00:56:13.444Z,11.32
2022-10-09T00:57:13.418Z,11.33
2022-10-09T00:58:13.420Z,11.29
2022-10-09T00:59:13.406Z,11.27
2022-10-09T01:00:13.397Z,11.27
2022-10-09T01:01:13.405Z,11.21
2022-10-09T01:02:13.446Z,11.19
2022-10-09T01:03:13.353Z,11.18
2022-10-09T01:04:13.350Z,11.15
2022-10-09T01:05:13.343Z,11.14
2022-10-09T01:06:13.328Z,11.09
2022-10-09T01:07:13.310Z,11.09
2022-10-09T01:08:13.299Z,11.06
2022-10-09T01:09:13.292Z,11.07
2022-10-09T01:10:13.290Z,11.06
2022-10-09T01:11:13.273Z,11.00
2022-10-09T01:12:13.261Z,10.97
2022-10-09T01:13:13.242Z,10.97
2022-10-09T01:14:13.241Z,10.96
2022-10-09T01:15:13.223Z,10.96
2022-10-09T01:16:13.262Z,10.92
2022-10-09T01:17:13.203Z,10.92
2022-10-09T01:18:13.203Z,10.94
2022-10-09T01:19:13.183Z,10.89
2022-10-09T01:20:13.182Z,10.91
2022-10-09T01:21:13.154Z,10.86
2022-10-09T01:22:13.163Z,10.88
2022-10-09T01:23:13.134Z,10.85
2022-10-09T01:24:13.145Z,10.84
2022-10-09T01:25:13.114Z,10.84
2022-10-09T01:26:13.115Z,10.81
2022-10-09T01:27:13.427Z,10.79
2022-10-09T01:28:13.113Z,10.76
2022-10-09T01:29:13.076Z,10.74
2022-10-09T01:30:13.073Z,10.67
2022-10-09T01:31:13.113Z,10.68
2022-10-09T01:32:13.048Z,10.68
2022-10-09T01:33:13.029Z,10.68
2022-10-09T01:34:13.025Z,10.66
2022-10-09T01:35:13.026Z,10.64
2022-10-09T01:36:13.008Z,10.66
2022-10-09T01:37:12.988Z,10.63
2022-10-09T01:38:12.985Z,10.61
2022-10-09T01:39:12.969Z,10.60
2022-10-09T01:40:12.967Z,10.59
2022-10-09T01:41:12.958Z,10.56
2022-10-09T01:42:12.939Z,10.55
2022-10-09T01:43:12.919Z,10.53
2022-10-09T01:44:13.080Z,10.47
2022-10-09T01:45:12.910Z,10.48
2022-10-09T01:46:12.952Z,10.48
2022-10-09T01:47:12.882Z,10.47
2022-10-09T01:48:12.879Z,10.47
2022-10-09T01:49:12.862Z,10.51
2022-10-09T01:50:13.710Z,10.51
2022-10-09T01:51:12.839Z,10.51
2022-10-09T01:52:12.843Z,10.52
2022-10-09T01:53:12.816Z,10.51
2022-10-09T01:54:12.863Z,10.47
2022-10-09T01:55:13.434Z,10.44
2022-10-09T01:56:12.792Z,10.47
2022-10-09T01:57:12.783Z,10.45
2022-10-09T01:58:12.763Z,10.47
2022-10-09T01:59:15.892Z,10.51
2022-10-09T02:00:12.745Z,10.48
2022-10-09T02:01:12.773Z,10.53
2022-10-09T02:02:12.907Z,10.53
2022-10-09T02:03:12.713Z,10.51
2022-10-09T02:04:12.705Z,10.48
2022-10-09T02:05:12.696Z,10.47
2022-10-09T02:06:12.677Z,10.45
2022-10-09T02:07:12.663Z,10.42
2022-10-09T02:08:12.665Z,10.41
2022-10-09T02:09:12.646Z,10.40
2022-10-09T02:10:12.639Z,10.38
2022-10-09T02:11:12.629Z,10.40
2022-10-09T02:12:12.628Z,10.40
2022-10-09T02:13:12.599Z,10.38
2022-10-09T02:14:12.596Z,10.36
2022-10-09T02:15:12.579Z,10.38
2022-10-09T02:16:12.653Z,10.38
2022-10-09T02:17:12.559Z,10.33
2022-10-09T02:18:12.558Z,10.32
2022-10-09T02:19:12.531Z,10.30
2022-10-09T02:20:12.530Z,10.26
2022-10-09T02:21:12.515Z,10.29
2022-10-09T02:22:12.518Z,10.29
2022-10-09T02:23:12.501Z,10.30
2022-10-09T02:24:12.492Z,10.32
2022-10-09T02:25:12.461Z,10.29
2022-10-09T02:26:12.469Z,10.27
2022-10-09T02:27:12.496Z,10.27
2022-10-09T02:28:12.518Z,10.23
2022-10-09T02:29:12.432Z,10.23
2022-10-09T02:30:12.422Z,10.22
2022-10-09T02:31:12.479Z,10.22
2022-10-09T02:32:12.405Z,10.23
2022-10-09T02:33:12.390Z,10.22
2022-10-09T02:34:12.383Z,10.23
2022-10-09T02:35:12.375Z,10.22
2022-10-09T02:36:12.366Z,10.23
2022-10-09T02:37:12.342Z,10.20
2022-10-09T02:38:12.355Z,10.22
2022-10-09T02:39:12.323Z,10.22
2022-10-09T02:40:12.324Z,10.22
2022-10-09T02:41:12.304Z,10.23
2022-10-09T02:42:12.295Z,10.23
2022-10-09T02:43:12.283Z,10.25
2022-10-09T02:44:12.283Z,10.22
2022-10-09T02:45:12.256Z,10.23
2022-10-09T02:46:12.358Z,10.25
2022-10-09T02:47:12.237Z,10.22
2022-10-09T02:48:12.283Z,10.25
2022-10-09T02:49:12.215Z,10.20
2022-10-09T02:50:12.227Z,10.20
2022-10-09T02:51:12.219Z,10.17
2022-10-09T02:52:12.191Z,10.18
2022-10-09T02:53:12.178Z,10.14
2022-10-09T02:54:12.175Z,10.12
2022-10-09T02:55:12.158Z,10.11
2022-10-09T02:56:12.151Z,10.11
2022-10-09T02:57:12.131Z,10.08
2022-10-09T02:58:12.128Z,10.05
2022-10-09T02:59:12.176Z,10.07
2022-10-09T03:00:12.118Z,10.07
2022-10-09T03:01:12.087Z,10.04
2022-10-09T03:02:12.222Z,10.04
2022-10-09T03:03:12.065Z,10.01
2022-10-09T03:04:12.091Z,10.01
2022-10-09T03:05:12.052Z,10.02
2022-10-09T03:06:12.044Z,10.02
2022-10-09T03:07:12.113Z,10.02
2022-10-09T03:08:12.022Z,9.99
2022-10-09T03:09:12.006Z,10.04
2022-10-09T03:10:11.995Z,10.04
2022-10-09T03:11:12.006Z,10.04
2022-10-09T03:12:11.984Z,10.02
2022-10-09T03:13:11.967Z,10.02
2022-10-09T03:14:11.954Z,10.02
2022-10-09T03:15:11.943Z,9.99
2022-10-09T03:16:12.024Z,10.02
2022-10-09T03:17:11.946Z,10.04
2022-10-09T03:18:11.914Z,10.04
2022-10-09T03:19:11.895Z,10.02
2022-10-09T03:20:11.895Z,10.02
2022-10-09T03:21:11.876Z,10.02
2022-10-09T03:22:11.878Z,10.02
2022-10-09T03:23:11.857Z,10.01
2022-10-09T03:24:11.855Z,9.99
2022-10-09T03:25:11.837Z,9.97
2022-10-09T03:26:11.836Z,10.01
2022-10-09T03:27:11.808Z,10.01
2022-10-09T03:28:11.933Z,10.01
2022-10-09T03:29:11.789Z,10.04
2022-10-09T03:30:11.788Z,10.01
2022-10-09T03:31:27.413Z,9.99
2022-10-09T03:32:12.849Z,9.97
2022-10-09T03:33:11.748Z,9.96
2022-10-09T03:34:11.742Z,9.94
2022-10-09T03:35:11.728Z,9.96
2022-10-09T03:36:11.728Z,9.97
2022-10-09T03:37:11.711Z,9.97
2022-10-09T03:38:11.700Z,9.93
2022-10-09T03:39:11.689Z,9.96
2022-10-09T03:40:11.691Z,9.96
2022-10-09T03:41:11.662Z,9.96
2022-10-09T03:42:11.699Z,9.93
2022-10-09T03:43:11.652Z,9.96
2022-10-09T03:44:11.636Z,9.97
2022-10-09T03:45:11.630Z,9.97
2022-10-09T03:46:11.665Z,10.02
2022-10-09T03:47:11.611Z,10.01
2022-10-09T03:48:11.603Z,10.05
2022-10-09T03:49:11.582Z,10.07
2022-10-09T03:50:11.576Z,10.08
2022-10-09T03:51:11.564Z,10.09
2022-10-09T03:52:11.558Z,10.09
2022-10-09T03:53:11.645Z,10.14
2022-10-09T03:54:11.527Z,10.12
2022-10-09T03:55:11.526Z,10.15
2022-10-09T03:56:11.508Z,10.17
2022-10-09T03:57:11.505Z,10.17
2022-10-09T03:58:11.476Z,10.18
2022-10-09T03:59:11.486Z,10.18
2022-10-09T04:00:11.467Z,10.23
2022-10-09T04:01:11.501Z,10.23
2022-10-09T04:02:11.478Z,10.23
2022-10-09T04:03:11.438Z,10.25
2022-10-09T04:04:11.429Z,10.26
2022-10-09T04:05:11.420Z,10.25
2022-10-09T04:06:11.400Z,10.27
2022-10-09T04:07:12.191Z,10.27
2022-10-09T04:08:11.389Z,10.26
2022-10-09T04:09:11.382Z,10.26
2022-10-09T04:10:11.381Z,10.27
2022-10-09T04:11:12.178Z,10.26
2022-10-09T04:12:11.360Z,10.26
2022-10-09T04:13:11.335Z,10.23
2022-10-09T04:14:11.328Z,10.26
2022-10-09T04:15:11.372Z,10.25
2022-10-09T04:16:11.355Z,10.22
2022-10-09T04:17:11.300Z,10.17
2022-10-09T04:18:11.272Z,10.14
2022-10-09T04:19:11.281Z,10.14
2022-10-09T04:20:11.264Z,10.14
2022-10-09T04:21:11.262Z,10.15
2022-10-09T04:22:11.240Z,10.12
2022-10-09T04:23:11.233Z,10.08
2022-10-09T04:24:11.213Z,10.09
2022-10-09T04:25:11.211Z,10.02
2022-10-09T04:26:11.205Z,9.99
2022-10-09T04:27:11.193Z,9.99
2022-10-09T04:28:11.226Z,9.96
2022-10-09T04:29:11.165Z,9.90
2022-10-09T04:30:11.153Z,9.90
2022-10-09T04:31:11.213Z,9.89
2022-10-09T04:32:11.133Z,9.90
2022-10-09T04:33:13.110Z,9.89
2022-10-09T04:34:11.107Z,9.86
2022-10-09T04:35:11.114Z,9.86
2022-10-09T04:36:11.096Z,9.86
2022-10-09T04:37:11.087Z,9.87
2022-10-09T04:38:11.076Z,9.83
2022-10-09T04:39:11.058Z,9.81
2022-10-09T04:40:11.048Z,9.83
2022-10-09T04:41:11.049Z,9.81
2022-10-09T04:42:11.027Z,9.83
2022-10-09T04:43:11.025Z,9.78
2022-10-09T04:44:11.001Z,9.78
2022-10-09T04:45:10.997Z,9.75
2022-10-09T04:46:11.030Z,9.78
2022-10-09T04:47:11.539Z,9.74
2022-10-09T04:48:10.960Z,9.76
2022-10-09T04:49:10.958Z,9.74
2022-10-09T04:50:10.940Z,9.74
2022-10-09T04:51:10.960Z,9.74
2022-10-09T04:52:10.933Z,9.74
2022-10-09T04:53:10.911Z,9.74
2022-10-09T04:54:10.891Z,9.75
2022-10-09T04:55:10.892Z,9.74
2022-10-09T04:56:10.882Z,9.74
2022-10-09T04:57:10.880Z,9.74
2022-10-09T04:58:10.852Z,9.74
2022-10-09T04:59:11.130Z,9.74
2022-10-09T05:00:10.834Z,9.76
2022-10-09T05:01:10.841Z,9.81
2022-10-09T05:02:10.833Z,9.84
2022-10-09T05:03:10.803Z,9.81
2022-10-09T05:04:10.794Z,9.83
2022-10-09T05:05:10.791Z,9.79
2022-10-09T05:06:10.774Z,9.81
2022-10-09T05:07:10.773Z,9.84
2022-10-09T05:08:10.746Z,9.83
2022-10-09T05:09:10.745Z,9.83
2022-10-09T05:10:10.833Z,9.79
2022-10-09T05:11:10.834Z,9.84
2022-10-09T05:12:10.717Z,9.84
2022-10-09T05:13:10.708Z,9.83
2022-10-09T05:14:10.695Z,9.86
2022-10-09T05:15:11.510Z,9.89
2022-10-09T05:16:10.716Z,9.91
2022-10-09T05:17:14.925Z,9.91
2022-10-09T05:18:10.648Z,9.91
2022-10-09T05:19:10.638Z,9.94
2022-10-09T05:20:10.629Z,9.94
2022-10-09T05:21:10.629Z,9.94
2022-10-09T05:22:10.606Z,9.93
2022-10-09T05:23:10.599Z,9.91
2022-10-09T05:24:10.653Z,9.90
2022-10-09T05:25:10.591Z,9.93
2022-10-09T05:26:10.861Z,9.90
2022-10-09T05:27:10.570Z,9.91
2022-10-09T05:28:10.570Z,9.89
2022-10-09T05:29:10.562Z,9.89
2022-10-09T05:30:10.548Z,9.91
2022-10-09T05:31:10.665Z,9.93
2022-10-09T05:32:10.629Z,9.91
2022-10-09T05:33:10.499Z,9.94
2022-10-09T05:34:10.502Z,9.93
2022-10-09T05:35:10.478Z,9.93
2022-10-09T05:36:10.473Z,9.96
2022-10-09T05:37:10.471Z,9.97
2022-10-09T05:38:10.453Z,9.96
2022-10-09T05:39:10.451Z,9.99
2022-10-09T05:40:10.425Z,10.01
2022-10-09T05:41:10.414Z,10.01
2022-10-09T05:42:10.425Z,9.99
2022-10-09T05:43:10.397Z,9.99
2022-10-09T05:44:11.071Z,10.01
2022-10-09T05:45:10.394Z,9.97
2022-10-09T05:46:10.479Z,9.97
2022-10-09T05:47:10.368Z,9.97
2022-10-09T05:48:10.366Z,9.96
2022-10-09T05:49:10.369Z,9.99
2022-10-09T05:50:10.377Z,9.97
2022-10-09T05:51:10.349Z,9.99
2022-10-09T05:52:10.287Z,10.01
2022-10-09T05:53:10.287Z,10.02
2022-10-09T05:54:10.277Z,10.02
2022-10-09T05:55:10.265Z,10.02
2022-10-09T05:56:10.259Z,10.05
2022-10-09T05:57:10.249Z,10.08
2022-10-09T05:58:11.058Z,10.07
2022-10-09T05:59:10.229Z,10.12
2022-10-09T06:00:10.212Z,10.15
2022-10-09T06:01:10.279Z,10.18
2022-10-09T06:02:10.204Z,10.18
2022-10-09T06:03:10.190Z,10.23
2022-10-09T06:04:10.167Z,10.22
2022-10-09T06:05:10.390Z,10.23
2022-10-09T06:06:10.140Z,10.25
2022-10-09T06:07:10.154Z,10.29
2022-10-09T06:08:10.121Z,10.30
2022-10-09T06:09:10.162Z,10.33
2022-10-09T06:10:10.101Z,10.33
2022-10-09T06:11:10.102Z,10.36
2022-10-09T06:12:10.093Z,10.38
2022-10-09T06:13:10.081Z,10.40
2022-10-09T06:14:10.103Z,10.41
2022-10-09T06:15:10.061Z,10.47
2022-10-09T06:16:10.161Z,10.45
2022-10-09T06:17:10.031Z,10.44
2022-10-09T06:18:10.014Z,10.44
2022-10-09T06:19:10.014Z,10.47
2022-10-09T06:20:10.004Z,10.48
2022-10-09T06:21:09.994Z,10.47
2022-10-09T06:22:09.974Z,10.51
2022-10-09T06:23:09.974Z,10.55
2022-10-09T06:24:09.958Z,10.56
2022-10-09T06:25:09.949Z,10.56
2022-10-09T06:26:09.926Z,10.60
2022-10-09T06:27:09.927Z,10.56
2022-10-09T06:28:09.992Z,10.60
2022-10-09T06:29:09.906Z,10.60
2022-10-09T06:30:09.886Z,10.66
2022-10-09T06:31:09.963Z,10.68
2022-10-09T06:32:09.868Z,10.66
2022-10-09T06:33:09.857Z,10.67
2022-10-09T06:34:09.848Z,10.68
2022-10-09T06:35:09.837Z,10.71
2022-10-09T06:36:10.659Z,10.71
2022-10-09T06:37:09.825Z,10.71
2022-10-09T06:38:09.799Z,10.74
2022-10-09T06:39:09.799Z,10.76
2022-10-09T06:40:09.789Z,10.78
2022-10-09T06:41:09.831Z,10.79
2022-10-09T06:42:09.760Z,10.78
2022-10-09T06:43:09.757Z,10.82
2022-10-09T06:44:12.845Z,10.81
2022-10-09T06:45:10.931Z,10.84
2022-10-09T06:46:09.802Z,10.85
2022-10-09T06:47:09.709Z,10.85
2022-10-09T06:48:09.693Z,10.86
2022-10-09T06:49:09.701Z,10.86
2022-10-09T06:50:09.682Z,10.92
2022-10-09T06:51:09.673Z,10.92
2022-10-09T06:52:09.654Z,10.94
2022-10-09T06:53:09.652Z,10.92
2022-10-09T06:54:09.636Z,10.97
2022-10-09T06:55:09.626Z,10.94
2022-10-09T06:56:09.611Z,10.94
2022-10-09T06:57:09.604Z,10.96
2022-10-09T06:58:09.593Z,10.97
2022-10-09T06:59:09.584Z,11.00
2022-10-09T07:00:09.566Z,11.02
2022-10-09T07:01:09.620Z,11.03
2022-10-09T07:02:09.648Z,11.07
2022-10-09T07:03:09.608Z,11.09
2022-10-09T07:04:09.525Z,11.11
2022-10-09T07:05:09.518Z,11.17
2022-10-09T07:06:09.496Z,11.17
2022-10-09T07:07:09.497Z,11.21
2022-10-09T07:08:09.487Z,11.27
2022-10-09T07:09:09.485Z,11.28
2022-10-09T07:10:09.457Z,11.24
2022-10-09T07:11:09.447Z,11.28
2022-10-09T07:12:09.447Z,11.29
2022-10-09T07:13:09.429Z,11.29
2022-10-09T07:14:09.418Z,11.35
2022-10-09T07:15:09.418Z,11.39
2022-10-09T07:16:09.482Z,11.36
2022-10-09T07:17:09.391Z,11.40
2022-10-09T07:18:09.369Z,11.43
2022-10-09T07:19:09.470Z,11.44
2022-10-09T07:20:09.351Z,11.49
2022-10-09T07:21:09.348Z,11.55
2022-10-09T07:22:09.322Z,11.57
2022-10-09T07:23:09.321Z,11.60
2022-10-09T07:24:09.304Z,11.61
2022-10-09T07:25:09.311Z,11.61
2022-10-09T07:26:09.294Z,11.64
2022-10-09T07:27:09.282Z,11.67
2022-10-09T07:28:09.288Z,11.64
2022-10-09T07:29:09.263Z,11.64
2022-10-09T07:30:09.254Z,11.69
2022-10-09T07:31:09.303Z,11.72
2022-10-09T07:32:10.632Z,11.76
2022-10-09T07:33:09.226Z,11.79
2022-10-09T07:34:09.206Z,11.80
2022-10-09T07:35:09.203Z,11.79
2022-10-09T07:36:09.195Z,11.78
2022-10-09T07:37:09.174Z,11.75
2022-10-09T07:38:09.163Z,11.76
2022-10-09T07:39:09.160Z,11.76
2022-10-09T07:40:09.146Z,11.76
2022-10-09T07:41:09.138Z,11.85
2022-10-09T07:42:09.116Z,11.88
2022-10-09T07:43:09.118Z,11.94
2022-10-09T07:44:09.096Z,12.02
2022-10-09T07:45:09.099Z,12.07
2022-10-09T07:46:09.132Z,12.13
2022-10-09T07:47:09.076Z,12.16
2022-10-09T07:48:09.058Z,12.17
2022-10-09T07:49:09.048Z,12.13
2022-10-09T07:50:09.036Z,12.16
2022-10-09T07:51:09.050Z,12.21
2022-10-09T07:52:09.010Z,12.21
2022-10-09T07:53:09.021Z,12.27
2022-10-09T07:54:09.000Z,12.27
2022-10-09T07:55:08.990Z,12.27
2022-10-09T07:56:08.971Z,12.29
2022-10-09T07:57:08.972Z,12.32
2022-10-09T07:58:08.950Z,12.27
2022-10-09T07:59:08.951Z,12.27
2022-10-09T08:00:09.522Z,12.21
2022-10-09T08:01:09.014Z,12.27
2022-10-09T08:02:08.945Z,12.31
2022-10-09T08:03:08.980Z,12.21
2022-10-09T08:04:08.894Z,12.21
2022-10-09T08:05:08.872Z,12.21
2022-10-09T08:06:08.873Z,12.24
2022-10-09T08:07:08.963Z,12.24
2022-10-09T08:08:08.872Z,12.28
2022-10-09T08:09:08.944Z,12.32
2022-10-09T08:10:08.830Z,12.35
2022-10-09T08:11:08.815Z,12.34
2022-10-09T08:12:08.814Z,12.38
2022-10-09T08:13:08.795Z,12.41
2022-10-09T08:14:09.138Z,12.45
2022-10-09T08:15:08.769Z,12.41
2022-10-09T08:16:09.125Z,12.47
2022-10-09T08:17:08.755Z,12.49
2022-10-09T08:18:08.747Z,12.53
2022-10-09T08:19:09.537Z,12.57
2022-10-09T08:20:08.727Z,12.59
2022-10-09T08:21:08.709Z,12.52
2022-10-09T08:22:08.708Z,12.49
2022-10-09T08:23:08.690Z,12.42
2022-10-09T08:24:08.680Z,12.41
2022-10-09T08:25:08.669Z,12.39
2022-10-09T08:26:08.668Z,12.41
2022-10-09T08:27:08.651Z,12.42
2022-10-09T08:28:08.668Z,12.49
2022-10-09T08:29:08.638Z,12.52
2022-10-09T08:30:08.621Z,12.57
2022-10-09T08:31:08.721Z,12.62
2022-10-09T08:32:08.600Z,12.65
2022-10-09T08:33:08.592Z,12.64
2022-10-09T08:34:08.942Z,12.64
2022-10-09T08:35:09.372Z,12.68
2022-10-09T08:36:08.564Z,12.72
2022-10-09T08:37:09.362Z,12.72
2022-10-09T08:38:14.548Z,12.74
2022-10-09T08:39:09.523Z,12.75
2022-10-09T08:40:08.513Z,12.78
2022-10-09T08:41:08.793Z,12.78
2022-10-09T08:42:08.493Z,12.78
2022-10-09T08:43:08.485Z,12.77
2022-10-09T08:44:08.485Z,12.77
2022-10-09T08:45:08.469Z,12.77
2022-10-09T08:46:08.479Z,12.77
2022-10-09T08:47:08.461Z,12.78
2022-10-09T08:48:08.436Z,12.78
2022-10-09T08:49:09.368Z,12.78
2022-10-09T08:50:08.627Z,12.77
2022-10-09T08:51:08.426Z,12.78
2022-10-09T08:52:08.404Z,12.75
2022-10-09T08:53:08.367Z,12.77
2022-10-09T08:54:08.368Z,12.72
2022-10-09T08:55:08.358Z,12.74
2022-10-09T08:56:08.348Z,12.71
2022-10-09T08:57:09.149Z,12.74
2022-10-09T08:58:08.325Z,12.75
2022-10-09T08:59:08.310Z,12.72
2022-10-09T09:00:08.310Z,12.78
2022-10-09T09:01:09.100Z,12.75
2022-10-09T09:02:08.389Z,12.79
2022-10-09T09:03:08.350Z,12.78
2022-10-09T09:04:08.261Z,12.79
2022-10-09T09:05:08.254Z,12.72
2022-10-09T09:06:08.249Z,12.74
2022-10-09T09:07:09.180Z,12.72
2022-10-09T09:08:08.352Z,12.74
2022-10-09T09:09:08.202Z,12.78
2022-10-09T09:10:08.214Z,12.72
2022-10-09T09:11:08.183Z,12.71
2022-10-09T09:12:08.293Z,12.72
2022-10-09T09:13:08.162Z,12.75
2022-10-09T09:14:08.163Z,12.75
2022-10-09T09:15:08.145Z,12.72
2022-10-09T09:16:08.178Z,12.75
2022-10-09T09:17:08.125Z,12.71
2022-10-09T09:18:08.123Z,12.72
2022-10-09T09:19:08.914Z,12.75
2022-10-09T09:20:08.105Z,12.78
2022-10-09T09:21:08.077Z,12.82
2022-10-09T09:22:08.896Z,12.87
2022-10-09T09:23:08.867Z,12.86
2022-10-09T09:24:08.104Z,12.86
2022-10-09T09:25:08.050Z,12.83
2022-10-09T09:26:08.038Z,12.85
2022-10-09T09:27:08.018Z,12.85
2022-10-09T09:28:12.218Z,12.86
2022-10-09T09:29:07.996Z,12.89
2022-10-09T09:30:08.000Z,12.92
2022-10-09T09:31:08.053Z,12.97
2022-10-09T09:32:07.970Z,13.05
2022-10-09T09:33:07.950Z,13.08
2022-10-09T09:34:07.950Z,13.12
2022-10-09T09:35:07.930Z,13.10
2022-10-09T09:36:07.938Z,13.14
2022-10-09T09:37:07.912Z,13.17
2022-10-09T09:38:07.909Z,13.23
2022-10-09T09:40:35.627Z,13.32
2022-10-09T09:41:08.876Z,13.38
2022-10-09T09:42:07.872Z,13.39
2022-10-09T09:43:07.861Z,13.41
2022-10-09T09:44:07.852Z,13.39
2022-10-09T09:45:07.832Z,13.41
2022-10-09T09:46:07.920Z,13.45
2022-10-09T09:47:07.854Z,13.46
2022-10-09T09:48:07.803Z,13.44
2022-10-09T09:49:09.537Z,13.41
2022-10-09T09:50:18.509Z,13.38
2022-10-09T09:51:27.275Z,13.30
2022-10-09T09:52:09.036Z,13.29
2022-10-09T09:53:07.742Z,13.26
2022-10-09T09:54:07.747Z,13.25
2022-10-09T09:55:07.716Z,13.25
2022-10-09T09:56:07.731Z,13.23
2022-10-09T09:57:13.958Z,13.20
2022-10-09T09:58:08.697Z,13.19
2022-10-09T09:59:07.690Z,13.20
2022-10-09T10:00:07.677Z,13.20
2022-10-09T10:01:07.778Z,13.25
2022-10-09T10:02:07.715Z,13.29
2022-10-09T10:03:07.646Z,13.30
2022-10-09T10:04:07.676Z,13.33
2022-10-09T10:05:07.620Z,13.42
2022-10-09T10:06:07.610Z,13.45
2022-10-09T10:07:07.608Z,13.44
2022-10-09T10:08:07.589Z,13.42
2022-10-09T10:09:07.571Z,13.42
2022-10-09T10:10:07.570Z,13.38
2022-10-09T10:11:07.551Z,13.32
2022-10-09T10:12:07.550Z,13.32
2022-10-09T10:13:07.530Z,13.33
2022-10-09T10:14:07.531Z,13.44
2022-10-09T10:15:07.513Z,13.46
2022-10-09T10:16:07.619Z,13.52
2022-10-09T10:17:07.493Z,13.59
2022-10-09T10:18:07.481Z,13.64
2022-10-09T10:19:07.474Z,13.69
2022-10-09T10:20:07.465Z,13.75
2022-10-09T10:21:07.454Z,13.75
2022-10-09T10:22:07.444Z,13.77
2022-10-09T10:23:07.426Z,13.81
2022-10-09T10:24:07.466Z,13.87
2022-10-09T10:25:07.405Z,13.91
2022-10-09T10:26:07.396Z,13.96
2022-10-09T10:27:07.385Z,13.97
2022-10-09T10:28:07.440Z,13.95
2022-10-09T10:29:07.357Z,13.95
2022-10-09T10:30:07.355Z,13.97
2022-10-09T10:31:07.408Z,14.00
2022-10-09T10:32:07.338Z,13.99
2022-10-09T10:33:07.320Z,13.88
2022-10-09T10:34:07.315Z,13.85
2022-10-09T10:35:07.298Z,13.82
2022-10-09T10:36:07.299Z,13.85
2022-10-09T10:37:07.359Z,13.89
2022-10-09T10:38:07.270Z,13.88
2022-10-09T10:39:07.261Z,13.91
2022-10-09T10:40:07.250Z,13.89
2022-10-09T10:41:07.240Z,13.96
2022-10-09T10:42:07.241Z,13.95
2022-10-09T10:43:07.221Z,13.95
2022-10-09T10:44:07.204Z,13.95
2022-10-09T10:45:07.211Z,13.89
2022-10-09T10:46:07.309Z,13.92
2022-10-09T10:47:07.173Z,13.92
2022-10-09T10:48:07.182Z,13.89
2022-10-09T10:49:07.152Z,13.85
2022-10-09T10:50:07.155Z,13.81
2022-10-09T10:51:07.611Z,13.78
2022-10-09T10:52:07.123Z,13.66
2022-10-09T10:53:07.796Z,13.67
2022-10-09T10:54:07.103Z,13.64
2022-10-09T10:55:07.207Z,13.63
2022-10-09T10:56:07.084Z,13.60
2022-10-09T10:57:07.066Z,13.59
2022-10-09T10:58:07.056Z,13.62
2022-10-09T10:59:07.044Z,13.62
2022-10-09T11:00:07.066Z,13.54
2022-10-09T11:01:07.059Z,13.55
2022-10-09T11:02:07.025Z,13.55
2022-10-09T11:03:07.043Z,13.57
2022-10-09T11:04:06.998Z,13.62
2022-10-09T11:05:06.985Z,13.54
2022-10-09T11:06:07.048Z,13.48
2022-10-09T11:07:06.960Z,13.46
2022-10-09T11:08:07.191Z,13.49
2022-10-09T11:09:06.937Z,13.49
2022-10-09T11:10:06.929Z,13.46
2022-10-09T11:11:06.920Z,13.46
2022-10-09T11:12:10.035Z,13.49
2022-10-09T11:13:08.249Z,13.54
2022-10-09T11:14:06.892Z,13.60
2022-10-09T11:15:06.872Z,13.64
2022-10-09T11:16:06.945Z,13.69
2022-10-09T11:17:06.974Z,13.73
2022-10-09T11:18:06.861Z,13.70
2022-10-09T11:19:06.824Z,13.69
2022-10-09T11:20:06.823Z,13.67
2022-10-09T11:21:06.811Z,13.62
2022-10-09T11:22:06.816Z,13.60
2022-10-09T11:23:06.807Z,13.66
2022-10-09T11:24:06.803Z,13.70
2022-10-09T11:25:06.784Z,13.73
2022-10-09T11:26:06.761Z,13.78
2022-10-09T11:27:06.756Z,13.81
2022-10-09T11:28:06.777Z,13.79
2022-10-09T11:29:06.723Z,13.79
2022-10-09T11:30:06.728Z,13.67
2022-10-09T11:31:06.767Z,13.60
2022-10-09T11:32:07.656Z,13.60
2022-10-09T11:33:06.681Z,13.57
2022-10-09T11:34:06.679Z,13.54
2022-10-09T11:35:06.836Z,13.52
2022-10-09T11:36:06.657Z,13.51
2022-10-09T11:37:06.636Z,13.54
2022-10-09T11:38:08.131Z,13.59
2022-10-09T11:39:06.618Z,13.55
2022-10-09T11:40:06.608Z,13.59
2022-10-09T11:41:07.484Z,13.63
2022-10-09T11:42:06.590Z,13.66
2022-10-09T11:43:06.579Z,13.70
2022-10-09T11:44:06.578Z,13.75
2022-10-09T11:45:06.552Z,13.79
2022-10-09T11:46:06.615Z,13.87
2022-10-09T11:47:09.498Z,13.95
2022-10-09T11:48:06.531Z,13.91
2022-10-09T11:49:06.513Z,13.87
2022-10-09T11:50:06.513Z,13.82
2022-10-09T11:51:06.494Z,13.78
2022-10-09T11:52:06.503Z,13.77
2022-10-09T11:53:06.471Z,13.79
2022-10-09T11:54:06.472Z,13.81
2022-10-09T11:55:06.443Z,13.85
2022-10-09T11:56:06.443Z,13.88
2022-10-09T11:57:07.043Z,13.97
2022-10-09T11:58:06.422Z,14.04
2022-10-09T11:59:06.404Z,14.06
2022-10-09T12:00:06.406Z,14.15
2022-10-09T12:01:06.440Z,14.22
2022-10-09T12:02:06.438Z,14.28
2022-10-09T12:03:06.366Z,14.28
2022-10-09T12:04:06.366Z,14.27
2022-10-09T12:05:06.337Z,14.29
2022-10-09T12:06:06.340Z,14.25
2022-10-09T12:07:06.317Z,14.24
2022-10-09T12:08:06.319Z,14.18
2022-10-09T12:09:06.289Z,14.18
2022-10-09T12:10:06.288Z,14.10
2022-10-09T12:11:06.268Z,14.09
2022-10-09T12:12:06.288Z,14.07
2022-10-09T12:13:06.253Z,13.95
2022-10-09T12:14:06.243Z,13.92
2022-10-09T12:15:06.240Z,13.85
2022-10-09T12:16:06.266Z,13.87
2022-10-09T12:17:06.231Z,13.85
2022-10-09T12:18:06.201Z,13.89
2022-10-09T12:19:06.201Z,13.92
2022-10-09T12:20:06.181Z,13.97
2022-10-09T12:21:06.172Z,14.02
2022-10-09T12:22:06.152Z,14.04
2022-10-09T12:23:25.686Z,14.09
2022-10-09T12:24:07.214Z,14.18
2022-10-09T12:25:06.135Z,14.18
2022-10-09T12:26:06.124Z,14.21
2022-10-09T12:27:06.114Z,14.18
2022-10-09T12:28:06.298Z,14.21
2022-10-09T12:29:06.084Z,14.24
2022-10-09T12:30:06.072Z,14.24
2022-10-09T12:31:06.080Z,14.27
2022-10-09T12:32:06.045Z,14.27
2022-10-09T12:33:06.148Z,14.33
2022-10-09T12:34:06.026Z,14.39
2022-10-09T12:35:06.041Z,14.39
2022-10-09T12:36:06.005Z,14.35
2022-10-09T12:37:06.008Z,14.32
2022-10-09T12:38:05.987Z,14.27
2022-10-09T12:39:05.987Z,14.25
2022-10-09T12:40:05.968Z,14.27
2022-10-09T12:41:05.959Z,14.32
2022-10-09T12:42:05.945Z,14.25
2022-10-09T12:43:05.939Z,14.25
2022-10-09T12:44:05.938Z,14.32
2022-10-09T12:45:05.918Z,14.35
2022-10-09T12:46:05.985Z,14.40
2022-10-09T12:47:05.900Z,14.42
2022-10-09T12:48:05.888Z,14.50
2022-10-09T12:49:05.878Z,14.54
2022-10-09T12:50:05.870Z,14.64
2022-10-09T12:51:05.861Z,14.64
2022-10-09T12:52:05.842Z,14.60
2022-10-09T12:53:05.832Z,14.55
2022-10-09T12:54:05.815Z,14.54
2022-10-09T12:55:05.812Z,14.55
2022-10-09T12:56:05.806Z,14.50